sensor_id;sensor_type;location;lat;lon;timestamp;P1;durP1;ratioP1;P2;durP2;ratioP2
12120;SDS011;6124;59.460;17.908;2023-08-24T00:01:45;6.43;;;3.50;;
12120;SDS011;6124;59.460;17.908;2023-08-24T00:04:12;4.33;;;3.13;;
12120;SDS011;6124;59.460;17.908;2023-08-24T00:06:40;5.07;;;3.50;;
12120;SDS011;6124;59.460;17.908;2023-08-24T00:09:07;3.93;;;3.47;;
12120;SDS011;6124;59.460;17.908;2023-08-24T00:11:34;4.43;;;3.30;;
12120;SDS011;6124;59.460;17.908;2023-08-24T00:14:02;3.40;;;3.10;;
12120;SDS011;6124;59.460;17.908;2023-08-24T00:16:31;3.83;;;3.33;;
12120;SDS011;6124;59.460;17.908;2023-08-24T00:18:58;3.33;;;3.03;;
12120;SDS011;6124;59.460;17.908;2023-08-24T00:21:25;3.73;;;3.27;;
12120;SDS011;6124;59.460;17.908;2023-08-24T00:23:53;4.27;;;3.30;;
12120;SDS011;6124;59.460;17.908;2023-08-24T00:26:21;3.53;;;3.20;;
12120;SDS011;6124;59.460;17.908;2023-08-24T00:28:48;5.00;;;3.70;;
12120;SDS011;6124;59.460;17.908;2023-08-24T00:31:16;4.50;;;3.20;;
12120;SDS011;6124;59.460;17.908;2023-08-24T00:33:45;4.63;;;3.40;;
12120;SDS011;6124;59.460;17.908;2023-08-24T00:36:12;3.83;;;3.10;;
12120;SDS011;6124;59.460;17.908;2023-08-24T00:38:40;4.43;;;3.30;;
12120;SDS011;6124;59.460;17.908;2023-08-24T00:41:08;3.57;;;3.17;;
12120;SDS011;6124;59.460;17.908;2023-08-24T00:43:35;5.07;;;3.13;;
12120;SDS011;6124;59.460;17.908;2023-08-24T00:46:03;5.00;;;3.50;;
12120;SDS011;6124;59.460;17.908;2023-08-24T00:48:30;3.40;;;3.10;;
12120;SDS011;6124;59.460;17.908;2023-08-24T00:51:00;3.33;;;3.03;;
12120;SDS011;6124;59.460;17.908;2023-08-24T00:53:28;4.53;;;3.40;;
12120;SDS011;6124;59.460;17.908;2023-08-24T00:55:56;8.10;;;3.40;;
12120;SDS011;6124;59.460;17.908;2023-08-24T00:58:24;4.63;;;3.13;;
12120;SDS011;6124;59.460;17.908;2023-08-24T01:00:54;3.50;;;3.20;;
12120;SDS011;6124;59.460;17.908;2023-08-24T01:03:22;6.57;;;3.30;;
12120;SDS011;6124;59.460;17.908;2023-08-24T01:05:50;4.20;;;3.00;;
12120;SDS011;6124;59.460;17.908;2023-08-24T01:08:18;5.40;;;3.07;;
12120;SDS011;6124;59.460;17.908;2023-08-24T01:10:47;3.23;;;2.90;;
12120;SDS011;6124;59.460;17.908;2023-08-24T01:13:17;5.73;;;3.03;;
12120;SDS011;6124;59.460;17.908;2023-08-24T01:15:48;3.37;;;3.00;;
12120;SDS011;6124;59.460;17.908;2023-08-24T01:18:17;5.03;;;2.93;;
12120;SDS011;6124;59.460;17.908;2023-08-24T01:20:45;4.80;;;3.00;;
12120;SDS011;6124;59.460;17.908;2023-08-24T01:23:18;3.93;;;2.90;;
12120;SDS011;6124;59.460;17.908;2023-08-24T01:25:52;3.80;;;2.77;;
12120;SDS011;6124;59.460;17.908;2023-08-24T01:28:21;4.17;;;3.27;;
12120;SDS011;6124;59.460;17.908;2023-08-24T01:30:49;3.73;;;2.90;;
12120;SDS011;6124;59.460;17.908;2023-08-24T01:33:16;3.77;;;2.90;;
12120;SDS011;6124;59.460;17.908;2023-08-24T01:35:44;5.50;;;3.20;;
12120;SDS011;6124;59.460;17.908;2023-08-24T01:38:11;4.67;;;2.90;;
12120;SDS011;6124;59.460;17.908;2023-08-24T01:40:43;7.50;;;3.00;;
12120;SDS011;6124;59.460;17.908;2023-08-24T01:43:12;3.70;;;3.13;;
12120;SDS011;6124;59.460;17.908;2023-08-24T01:45:42;5.87;;;3.13;;
12120;SDS011;6124;59.460;17.908;2023-08-24T01:48:10;3.63;;;2.63;;
12120;SDS011;6124;59.460;17.908;2023-08-24T01:50:38;4.13;;;2.97;;
12120;SDS011;6124;59.460;17.908;2023-08-24T01:53:05;4.03;;;3.00;;
12120;SDS011;6124;59.460;17.908;2023-08-24T01:55:33;4.00;;;2.77;;
12120;SDS011;6124;59.460;17.908;2023-08-24T01:58:00;4.30;;;3.10;;
12120;SDS011;6124;59.460;17.908;2023-08-24T02:00:27;3.90;;;2.83;;
12120;SDS011;6124;59.460;17.908;2023-08-24T02:02:56;3.40;;;2.90;;
12120;SDS011;6124;59.460;17.908;2023-08-24T02:05:24;4.37;;;3.07;;
12120;SDS011;6124;59.460;17.908;2023-08-24T02:07:54;4.43;;;2.80;;
12120;SDS011;6124;59.460;17.908;2023-08-24T02:10:22;6.60;;;3.17;;
12120;SDS011;6124;59.460;17.908;2023-08-24T02:12:49;6.40;;;3.43;;
12120;SDS011;6124;59.460;17.908;2023-08-24T02:15:17;4.37;;;2.70;;
12120;SDS011;6124;59.460;17.908;2023-08-24T02:17:44;3.87;;;3.00;;
12120;SDS011;6124;59.460;17.908;2023-08-24T02:20:13;3.80;;;3.20;;
12120;SDS011;6124;59.460;17.908;2023-08-24T02:22:40;4.00;;;2.73;;
12120;SDS011;6124;59.460;17.908;2023-08-24T02:25:09;5.13;;;2.67;;
12120;SDS011;6124;59.460;17.908;2023-08-24T02:27:36;4.97;;;3.13;;
12120;SDS011;6124;59.460;17.908;2023-08-24T02:30:04;5.43;;;3.40;;
12120;SDS011;6124;59.460;17.908;2023-08-24T02:32:31;5.33;;;3.13;;
12120;SDS011;6124;59.460;17.908;2023-08-24T02:34:59;3.90;;;3.13;;
12120;SDS011;6124;59.460;17.908;2023-08-24T02:37:28;6.03;;;3.50;;
12120;SDS011;6124;59.460;17.908;2023-08-24T02:39:55;5.13;;;3.30;;
12120;SDS011;6124;59.460;17.908;2023-08-24T02:42:22;3.37;;;3.07;;
12120;SDS011;6124;59.460;17.908;2023-08-24T02:44:49;4.50;;;3.10;;
12120;SDS011;6124;59.460;17.908;2023-08-24T02:47:17;3.43;;;3.13;;
12120;SDS011;6124;59.460;17.908;2023-08-24T02:49:44;4.70;;;3.23;;
12120;SDS011;6124;59.460;17.908;2023-08-24T02:52:11;5.40;;;3.47;;
12120;SDS011;6124;59.460;17.908;2023-08-24T02:54:40;4.80;;;3.33;;
12120;SDS011;6124;59.460;17.908;2023-08-24T02:57:07;4.43;;;3.50;;
12120;SDS011;6124;59.460;17.908;2023-08-24T02:59:35;6.27;;;3.57;;
12120;SDS011;6124;59.460;17.908;2023-08-24T03:02:02;3.67;;;3.30;;
12120;SDS011;6124;59.460;17.908;2023-08-24T03:04:29;5.77;;;3.63;;
12120;SDS011;6124;59.460;17.908;2023-08-24T03:06:57;7.90;;;3.80;;
12120;SDS011;6124;59.460;17.908;2023-08-24T03:09:24;4.53;;;3.53;;
12120;SDS011;6124;59.460;17.908;2023-08-24T03:11:53;7.13;;;3.73;;
12120;SDS011;6124;59.460;17.908;2023-08-24T03:14:20;6.10;;;3.50;;
12120;SDS011;6124;59.460;17.908;2023-08-24T03:16:47;4.90;;;3.77;;
12120;SDS011;6124;59.460;17.908;2023-08-24T03:19:15;6.17;;;3.70;;
12120;SDS011;6124;59.460;17.908;2023-08-24T03:21:43;5.33;;;3.60;;
12120;SDS011;6124;59.460;17.908;2023-08-24T03:24:10;6.93;;;3.73;;
12120;SDS011;6124;59.460;17.908;2023-08-24T03:26:38;5.17;;;3.20;;
12120;SDS011;6124;59.460;17.908;2023-08-24T03:29:06;7.67;;;3.60;;
12120;SDS011;6124;59.460;17.908;2023-08-24T03:31:34;6.07;;;3.73;;
12120;SDS011;6124;59.460;17.908;2023-08-24T03:34:01;7.47;;;3.97;;
12120;SDS011;6124;59.460;17.908;2023-08-24T03:36:29;4.30;;;3.57;;
12120;SDS011;6124;59.460;17.908;2023-08-24T03:38:57;6.27;;;3.40;;
12120;SDS011;6124;59.460;17.908;2023-08-24T03:41:24;4.33;;;3.60;;
12120;SDS011;6124;59.460;17.908;2023-08-24T03:43:51;4.63;;;3.50;;
12120;SDS011;6124;59.460;17.908;2023-08-24T03:46:20;6.50;;;3.70;;
12120;SDS011;6124;59.460;17.908;2023-08-24T03:48:47;4.37;;;3.27;;
12120;SDS011;6124;59.460;17.908;2023-08-24T03:51:15;4.47;;;3.63;;
12120;SDS011;6124;59.460;17.908;2023-08-24T03:53:42;4.80;;;3.43;;
12120;SDS011;6124;59.460;17.908;2023-08-24T03:56:10;8.53;;;3.53;;
12120;SDS011;6124;59.460;17.908;2023-08-24T03:58:37;6.07;;;3.73;;
12120;SDS011;6124;59.460;17.908;2023-08-24T04:01:04;4.27;;;3.17;;
12120;SDS011;6124;59.460;17.908;2023-08-24T04:03:33;4.37;;;3.30;;
12120;SDS011;6124;59.460;17.908;2023-08-24T04:06:00;6.77;;;3.50;;
12120;SDS011;6124;59.460;17.908;2023-08-24T04:08:28;4.33;;;3.50;;
12120;SDS011;6124;59.460;17.908;2023-08-24T04:10:55;7.30;;;4.00;;
12120;SDS011;6124;59.460;17.908;2023-08-24T04:13:22;4.67;;;3.67;;
12120;SDS011;6124;59.460;17.908;2023-08-24T04:15:50;6.50;;;3.30;;
12120;SDS011;6124;59.460;17.908;2023-08-24T04:18:17;5.00;;;3.37;;
12120;SDS011;6124;59.460;17.908;2023-08-24T04:20:46;6.00;;;3.30;;
12120;SDS011;6124;59.460;17.908;2023-08-24T04:23:13;4.03;;;3.33;;
12120;SDS011;6124;59.460;17.908;2023-08-24T04:25:41;6.03;;;3.50;;
12120;SDS011;6124;59.460;17.908;2023-08-24T04:28:09;5.50;;;3.53;;
12120;SDS011;6124;59.460;17.908;2023-08-24T04:30:36;6.23;;;3.40;;
12120;SDS011;6124;59.460;17.908;2023-08-24T04:33:04;4.47;;;3.37;;
12120;SDS011;6124;59.460;17.908;2023-08-24T04:35:33;5.73;;;3.50;;
12120;SDS011;6124;59.460;17.908;2023-08-24T04:38:03;5.10;;;3.47;;
12120;SDS011;6124;59.460;17.908;2023-08-24T04:40:38;5.60;;;3.40;;
12120;SDS011;6124;59.460;17.908;2023-08-24T04:43:10;6.10;;;3.37;;
12120;SDS011;6124;59.460;17.908;2023-08-24T04:45:37;5.63;;;3.20;;
12120;SDS011;6124;59.460;17.908;2023-08-24T04:48:05;4.43;;;3.23;;
12120;SDS011;6124;59.460;17.908;2023-08-24T04:50:32;8.10;;;3.70;;
12120;SDS011;6124;59.460;17.908;2023-08-24T04:52:59;5.43;;;3.10;;
12120;SDS011;6124;59.460;17.908;2023-08-24T04:55:28;5.57;;;3.37;;
12120;SDS011;6124;59.460;17.908;2023-08-24T04:57:56;7.00;;;3.37;;
12120;SDS011;6124;59.460;17.908;2023-08-24T05:00:23;6.10;;;3.60;;
12120;SDS011;6124;59.460;17.908;2023-08-24T05:02:50;6.70;;;3.40;;
12120;SDS011;6124;59.460;17.908;2023-08-24T05:05:18;6.03;;;3.67;;
12120;SDS011;6124;59.460;17.908;2023-08-24T05:07:45;8.83;;;3.80;;
12120;SDS011;6124;59.460;17.908;2023-08-24T05:10:13;6.13;;;3.30;;
12120;SDS011;6124;59.460;17.908;2023-08-24T05:12:41;5.07;;;3.73;;
12120;SDS011;6124;59.460;17.908;2023-08-24T05:15:09;7.73;;;3.17;;
12120;SDS011;6124;59.460;17.908;2023-08-24T05:17:38;3.63;;;3.20;;
12120;SDS011;6124;59.460;17.908;2023-08-24T05:20:06;7.10;;;4.13;;
12120;SDS011;6124;59.460;17.908;2023-08-24T05:22:35;6.70;;;4.00;;
12120;SDS011;6124;59.460;17.908;2023-08-24T05:25:02;6.93;;;3.50;;
12120;SDS011;6124;59.460;17.908;2023-08-24T05:27:30;4.60;;;3.63;;
12120;SDS011;6124;59.460;17.908;2023-08-24T05:29:59;8.93;;;4.13;;
12120;SDS011;6124;59.460;17.908;2023-08-24T05:32:27;6.40;;;3.47;;
12120;SDS011;6124;59.460;17.908;2023-08-24T05:34:54;9.20;;;3.70;;
12120;SDS011;6124;59.460;17.908;2023-08-24T05:37:21;7.07;;;3.50;;
12120;SDS011;6124;59.460;17.908;2023-08-24T05:39:49;5.30;;;3.13;;
12120;SDS011;6124;59.460;17.908;2023-08-24T05:42:16;5.87;;;3.43;;
12120;SDS011;6124;59.460;17.908;2023-08-24T05:44:43;8.97;;;3.87;;
12120;SDS011;6124;59.460;17.908;2023-08-24T05:47:12;6.23;;;3.53;;
12120;SDS011;6124;59.460;17.908;2023-08-24T05:49:39;6.67;;;3.33;;
12120;SDS011;6124;59.460;17.908;2023-08-24T05:52:06;7.03;;;3.50;;
12120;SDS011;6124;59.460;17.908;2023-08-24T05:54:35;7.37;;;3.50;;
12120;SDS011;6124;59.460;17.908;2023-08-24T05:57:03;4.77;;;3.60;;
12120;SDS011;6124;59.460;17.908;2023-08-24T05:59:30;5.07;;;3.57;;
12120;SDS011;6124;59.460;17.908;2023-08-24T06:01:58;7.83;;;3.80;;
12120;SDS011;6124;59.460;17.908;2023-08-24T06:04:26;6.00;;;3.63;;
12120;SDS011;6124;59.460;17.908;2023-08-24T06:06:54;7.03;;;3.67;;
12120;SDS011;6124;59.460;17.908;2023-08-24T06:09:21;6.80;;;4.00;;
12120;SDS011;6124;59.460;17.908;2023-08-24T06:11:48;5.93;;;3.20;;
12120;SDS011;6124;59.460;17.908;2023-08-24T06:14:16;7.93;;;3.47;;
12120;SDS011;6124;59.460;17.908;2023-08-24T06:16:43;8.63;;;4.03;;
12120;SDS011;6124;59.460;17.908;2023-08-24T06:19:10;7.67;;;4.13;;
12120;SDS011;6124;59.460;17.908;2023-08-24T06:21:40;6.67;;;3.63;;
12120;SDS011;6124;59.460;17.908;2023-08-24T06:24:07;5.00;;;3.67;;
12120;SDS011;6124;59.460;17.908;2023-08-24T06:26:35;10.10;;;3.87;;
12120;SDS011;6124;59.460;17.908;2023-08-24T06:29:02;7.63;;;3.80;;
12120;SDS011;6124;59.460;17.908;2023-08-24T06:31:29;10.30;;;3.70;;
12120;SDS011;6124;59.460;17.908;2023-08-24T06:33:58;6.67;;;3.50;;
12120;SDS011;6124;59.460;17.908;2023-08-24T06:36:25;7.83;;;3.93;;
12120;SDS011;6124;59.460;17.908;2023-08-24T06:38:55;9.07;;;3.57;;
12120;SDS011;6124;59.460;17.908;2023-08-24T06:41:23;7.87;;;3.63;;
12120;SDS011;6124;59.460;17.908;2023-08-24T06:43:51;7.13;;;3.87;;
12120;SDS011;6124;59.460;17.908;2023-08-24T06:46:20;8.60;;;4.53;;
12120;SDS011;6124;59.460;17.908;2023-08-24T06:48:48;8.20;;;3.80;;
12120;SDS011;6124;59.460;17.908;2023-08-24T06:51:15;6.77;;;3.73;;
12120;SDS011;6124;59.460;17.908;2023-08-24T06:53:42;8.77;;;3.80;;
12120;SDS011;6124;59.460;17.908;2023-08-24T06:56:13;4.90;;;3.53;;
12120;SDS011;6124;59.460;17.908;2023-08-24T06:58:40;6.73;;;4.40;;
12120;SDS011;6124;59.460;17.908;2023-08-24T07:01:08;6.43;;;4.13;;
12120;SDS011;6124;59.460;17.908;2023-08-24T07:03:36;8.27;;;4.13;;
12120;SDS011;6124;59.460;17.908;2023-08-24T07:06:05;8.27;;;4.10;;
12120;SDS011;6124;59.460;17.908;2023-08-24T07:08:32;7.97;;;4.13;;
12120;SDS011;6124;59.460;17.908;2023-08-24T07:11:00;6.57;;;3.90;;
12120;SDS011;6124;59.460;17.908;2023-08-24T07:13:28;7.77;;;3.97;;
12120;SDS011;6124;59.460;17.908;2023-08-24T07:15:56;8.43;;;3.77;;
12120;SDS011;6124;59.460;17.908;2023-08-24T07:18:23;6.60;;;3.73;;
12120;SDS011;6124;59.460;17.908;2023-08-24T07:20:50;7.00;;;3.47;;
12120;SDS011;6124;59.460;17.908;2023-08-24T07:23:18;8.70;;;3.80;;
12120;SDS011;6124;59.460;17.908;2023-08-24T07:25:45;8.80;;;4.33;;
12120;SDS011;6124;59.460;17.908;2023-08-24T07:28:13;6.70;;;3.60;;
12120;SDS011;6124;59.460;17.908;2023-08-24T07:30:42;8.57;;;3.47;;
12120;SDS011;6124;59.460;17.908;2023-08-24T07:33:09;9.90;;;3.87;;
12120;SDS011;6124;59.460;17.908;2023-08-24T07:35:37;5.40;;;3.47;;
12120;SDS011;6124;59.460;17.908;2023-08-24T07:38:04;4.50;;;3.10;;
12120;SDS011;6124;59.460;17.908;2023-08-24T07:40:31;7.53;;;3.30;;
12120;SDS011;6124;59.460;17.908;2023-08-24T07:42:59;4.47;;;3.47;;
12120;SDS011;6124;59.460;17.908;2023-08-24T07:45:26;5.23;;;3.00;;
12120;SDS011;6124;59.460;17.908;2023-08-24T07:47:55;5.73;;;3.10;;
12120;SDS011;6124;59.460;17.908;2023-08-24T07:50:22;7.17;;;3.33;;
12120;SDS011;6124;59.460;17.908;2023-08-24T07:52:50;7.60;;;3.00;;
12120;SDS011;6124;59.460;17.908;2023-08-24T07:55:17;6.50;;;3.20;;
12120;SDS011;6124;59.460;17.908;2023-08-24T07:57:45;5.60;;;3.27;;
12120;SDS011;6124;59.460;17.908;2023-08-24T08:00:14;5.03;;;3.00;;
12120;SDS011;6124;59.460;17.908;2023-08-24T08:02:41;5.00;;;2.83;;
12120;SDS011;6124;59.460;17.908;2023-08-24T08:05:10;5.93;;;2.90;;
12120;SDS011;6124;59.460;17.908;2023-08-24T08:07:38;8.03;;;3.30;;
12120;SDS011;6124;59.460;17.908;2023-08-24T08:10:05;4.47;;;3.00;;
12120;SDS011;6124;59.460;17.908;2023-08-24T08:12:33;5.30;;;3.50;;
12120;SDS011;6124;59.460;17.908;2023-08-24T08:15:00;4.83;;;3.20;;
12120;SDS011;6124;59.460;17.908;2023-08-24T08:17:28;6.70;;;3.10;;
12120;SDS011;6124;59.460;17.908;2023-08-24T08:19:55;6.37;;;3.10;;
12120;SDS011;6124;59.460;17.908;2023-08-24T08:22:24;5.40;;;3.20;;
12120;SDS011;6124;59.460;17.908;2023-08-24T08:24:51;6.47;;;3.47;;
12120;SDS011;6124;59.460;17.908;2023-08-24T08:27:22;4.17;;;2.87;;
12120;SDS011;6124;59.460;17.908;2023-08-24T08:29:49;6.77;;;3.40;;
12120;SDS011;6124;59.460;17.908;2023-08-24T08:32:17;5.80;;;3.17;;
12120;SDS011;6124;59.460;17.908;2023-08-24T08:34:44;6.53;;;2.90;;
12120;SDS011;6124;59.460;17.908;2023-08-24T08:37:11;7.13;;;2.77;;
12120;SDS011;6124;59.460;17.908;2023-08-24T08:39:40;5.20;;;2.73;;
12120;SDS011;6124;59.460;17.908;2023-08-24T08:42:11;4.63;;;2.47;;
12120;SDS011;6124;59.460;17.908;2023-08-24T08:44:39;3.73;;;2.73;;
12120;SDS011;6124;59.460;17.908;2023-08-24T08:47:08;3.93;;;2.60;;
12120;SDS011;6124;59.460;17.908;2023-08-24T08:49:36;10.47;;;3.33;;
12120;SDS011;6124;59.460;17.908;2023-08-24T08:52:04;6.43;;;2.67;;
12120;SDS011;6124;59.460;17.908;2023-08-24T08:54:32;6.53;;;3.07;;
12120;SDS011;6124;59.460;17.908;2023-08-24T08:57:01;6.17;;;2.50;;
12120;SDS011;6124;59.460;17.908;2023-08-24T08:59:29;5.57;;;2.90;;
12120;SDS011;6124;59.460;17.908;2023-08-24T09:01:57;8.30;;;2.80;;
12120;SDS011;6124;59.460;17.908;2023-08-24T09:04:25;5.20;;;2.90;;
12120;SDS011;6124;59.460;17.908;2023-08-24T09:06:53;5.03;;;3.17;;
12120;SDS011;6124;59.460;17.908;2023-08-24T09:09:21;7.23;;;3.23;;
12120;SDS011;6124;59.460;17.908;2023-08-24T09:11:48;5.67;;;2.90;;
12120;SDS011;6124;59.460;17.908;2023-08-24T09:14:17;6.03;;;3.00;;
12120;SDS011;6124;59.460;17.908;2023-08-24T09:16:45;7.40;;;2.97;;
12120;SDS011;6124;59.460;17.908;2023-08-24T09:19:12;7.20;;;3.17;;
12120;SDS011;6124;59.460;17.908;2023-08-24T09:21:39;5.80;;;3.00;;
12120;SDS011;6124;59.460;17.908;2023-08-24T09:24:08;8.87;;;3.50;;
12120;SDS011;6124;59.460;17.908;2023-08-24T09:26:36;8.87;;;3.00;;
12120;SDS011;6124;59.460;17.908;2023-08-24T09:29:10;5.07;;;2.63;;
12120;SDS011;6124;59.460;17.908;2023-08-24T09:31:39;6.20;;;2.43;;
12120;SDS011;6124;59.460;17.908;2023-08-24T09:34:09;3.33;;;2.40;;
12120;SDS011;6124;59.460;17.908;2023-08-24T09:36:36;5.63;;;2.70;;
12120;SDS011;6124;59.460;17.908;2023-08-24T09:39:04;5.43;;;2.77;;
12120;SDS011;6124;59.460;17.908;2023-08-24T09:41:39;3.57;;;2.83;;
12120;SDS011;6124;59.460;17.908;2023-08-24T09:44:07;5.90;;;3.37;;
12120;SDS011;6124;59.460;17.908;2023-08-24T09:46:34;9.10;;;3.30;;
12120;SDS011;6124;59.460;17.908;2023-08-24T09:49:05;8.33;;;3.20;;
12120;SDS011;6124;59.460;17.908;2023-08-24T09:51:33;6.57;;;3.03;;
12120;SDS011;6124;59.460;17.908;2023-08-24T09:54:02;6.27;;;2.53;;
12120;SDS011;6124;59.460;17.908;2023-08-24T09:56:34;4.27;;;2.40;;
12120;SDS011;6124;59.460;17.908;2023-08-24T09:59:04;6.73;;;2.80;;
12120;SDS011;6124;59.460;17.908;2023-08-24T10:01:34;6.67;;;2.70;;
12120;SDS011;6124;59.460;17.908;2023-08-24T10:04:02;4.30;;;2.67;;
12120;SDS011;6124;59.460;17.908;2023-08-24T10:06:33;5.77;;;2.70;;
12120;SDS011;6124;59.460;17.908;2023-08-24T10:09:04;5.23;;;2.57;;
12120;SDS011;6124;59.460;17.908;2023-08-24T10:11:34;4.10;;;2.70;;
12120;SDS011;6124;59.460;17.908;2023-08-24T10:14:04;6.80;;;2.80;;
12120;SDS011;6124;59.460;17.908;2023-08-24T10:16:33;5.80;;;2.70;;
12120;SDS011;6124;59.460;17.908;2023-08-24T10:19:01;6.50;;;2.50;;
12120;SDS011;6124;59.460;17.908;2023-08-24T10:21:29;5.67;;;2.50;;
12120;SDS011;6124;59.460;17.908;2023-08-24T10:23:57;6.43;;;2.70;;
12120;SDS011;6124;59.460;17.908;2023-08-24T10:26:25;4.57;;;2.50;;
12120;SDS011;6124;59.460;17.908;2023-08-24T10:28:53;5.10;;;2.23;;
12120;SDS011;6124;59.460;17.908;2023-08-24T10:31:20;6.07;;;2.97;;
12120;SDS011;6124;59.460;17.908;2023-08-24T10:33:48;6.07;;;2.20;;
12120;SDS011;6124;59.460;17.908;2023-08-24T10:36:16;4.97;;;2.57;;
12120;SDS011;6124;59.460;17.908;2023-08-24T10:38:43;3.87;;;2.70;;
12120;SDS011;6124;59.460;17.908;2023-08-24T10:41:12;3.33;;;2.60;;
12120;SDS011;6124;59.460;17.908;2023-08-24T10:43:40;5.67;;;2.80;;
12120;SDS011;6124;59.460;17.908;2023-08-24T10:46:11;7.03;;;2.53;;
12120;SDS011;6124;59.460;17.908;2023-08-24T10:48:57;4.50;;;2.30;;
12120;SDS011;6124;59.460;17.908;2023-08-24T10:51:25;4.77;;;2.43;;
12120;SDS011;6124;59.460;17.908;2023-08-24T10:53:55;6.47;;;2.70;;
12120;SDS011;6124;59.460;17.908;2023-08-24T10:56:29;5.53;;;2.57;;
12120;SDS011;6124;59.460;17.908;2023-08-24T10:59:09;6.23;;;2.20;;
12120;SDS011;6124;59.460;17.908;2023-08-24T11:01:38;5.57;;;2.17;;
12120;SDS011;6124;59.460;17.908;2023-08-24T11:04:05;5.17;;;2.30;;
12120;SDS011;6124;59.460;17.908;2023-08-24T11:06:34;3.13;;;2.17;;
12120;SDS011;6124;59.460;17.908;2023-08-24T11:09:07;3.23;;;2.20;;
12120;SDS011;6124;59.460;17.908;2023-08-24T11:11:40;3.07;;;2.30;;
12120;SDS011;6124;59.460;17.908;2023-08-24T11:14:13;4.23;;;1.80;;
12120;SDS011;6124;59.460;17.908;2023-08-24T11:16:42;2.73;;;1.70;;
12120;SDS011;6124;59.460;17.908;2023-08-24T11:19:10;2.57;;;1.60;;
12120;SDS011;6124;59.460;17.908;2023-08-24T11:21:38;3.40;;;2.00;;
12120;SDS011;6124;59.460;17.908;2023-08-24T11:24:05;2.00;;;1.50;;
12120;SDS011;6124;59.460;17.908;2023-08-24T11:26:33;7.70;;;2.20;;
12120;SDS011;6124;59.460;17.908;2023-08-24T11:29:05;3.10;;;2.00;;
12120;SDS011;6124;59.460;17.908;2023-08-24T11:31:33;2.37;;;1.83;;
12120;SDS011;6124;59.460;17.908;2023-08-24T11:34:00;3.70;;;2.00;;
12120;SDS011;6124;59.460;17.908;2023-08-24T11:36:28;4.83;;;2.00;;
12120;SDS011;6124;59.460;17.908;2023-08-24T11:38:56;2.93;;;1.60;;
12120;SDS011;6124;59.460;17.908;2023-08-24T11:41:24;4.43;;;1.80;;
12120;SDS011;6124;59.460;17.908;2023-08-24T11:43:58;3.83;;;1.80;;
12120;SDS011;6124;59.460;17.908;2023-08-24T11:46:27;2.93;;;1.90;;
12120;SDS011;6124;59.460;17.908;2023-08-24T11:48:54;5.33;;;1.83;;
12120;SDS011;6124;59.460;17.908;2023-08-24T11:51:22;2.63;;;1.87;;
12120;SDS011;6124;59.460;17.908;2023-08-24T11:53:49;4.60;;;2.20;;
12120;SDS011;6124;59.460;17.908;2023-08-24T11:56:16;3.03;;;1.90;;
12120;SDS011;6124;59.460;17.908;2023-08-24T11:58:47;2.70;;;1.70;;
12120;SDS011;6124;59.460;17.908;2023-08-24T12:01:14;3.80;;;1.80;;
12120;SDS011;6124;59.460;17.908;2023-08-24T12:03:43;3.20;;;2.00;;
12120;SDS011;6124;59.460;17.908;2023-08-24T12:06:11;2.70;;;2.20;;
12120;SDS011;6124;59.460;17.908;2023-08-24T12:08:39;4.07;;;1.93;;
12120;SDS011;6124;59.460;17.908;2023-08-24T12:11:10;3.33;;;2.00;;
12120;SDS011;6124;59.460;17.908;2023-08-24T12:13:37;3.83;;;2.10;;
12120;SDS011;6124;59.460;17.908;2023-08-24T12:16:05;3.27;;;1.83;;
12120;SDS011;6124;59.460;17.908;2023-08-24T12:18:35;3.90;;;1.90;;
12120;SDS011;6124;59.460;17.908;2023-08-24T12:21:04;4.17;;;2.03;;
12120;SDS011;6124;59.460;17.908;2023-08-24T12:23:31;2.60;;;1.90;;
12120;SDS011;6124;59.460;17.908;2023-08-24T12:25:59;4.80;;;2.00;;
12120;SDS011;6124;59.460;17.908;2023-08-24T12:28:27;4.73;;;2.40;;
12120;SDS011;6124;59.460;17.908;2023-08-24T12:30:56;2.33;;;1.80;;
12120;SDS011;6124;59.460;17.908;2023-08-24T12:33:26;3.73;;;1.80;;
12120;SDS011;6124;59.460;17.908;2023-08-24T12:35:54;3.50;;;1.67;;
12120;SDS011;6124;59.460;17.908;2023-08-24T12:38:23;3.60;;;2.07;;
12120;SDS011;6124;59.460;17.908;2023-08-24T12:40:51;4.10;;;2.00;;
12120;SDS011;6124;59.460;17.908;2023-08-24T12:43:18;4.70;;;1.90;;
12120;SDS011;6124;59.460;17.908;2023-08-24T12:45:46;3.73;;;1.90;;
12120;SDS011;6124;59.460;17.908;2023-08-24T12:48:14;4.30;;;1.80;;
12120;SDS011;6124;59.460;17.908;2023-08-24T12:50:41;3.47;;;1.90;;
12120;SDS011;6124;59.460;17.908;2023-08-24T12:53:08;4.03;;;1.90;;
12120;SDS011;6124;59.460;17.908;2023-08-24T12:55:38;1.83;;;1.57;;
12120;SDS011;6124;59.460;17.908;2023-08-24T12:58:05;3.23;;;1.70;;
12120;SDS011;6124;59.460;17.908;2023-08-24T13:00:33;2.33;;;1.70;;
12120;SDS011;6124;59.460;17.908;2023-08-24T13:03:00;3.50;;;1.90;;
12120;SDS011;6124;59.460;17.908;2023-08-24T13:05:27;3.13;;;1.90;;
12120;SDS011;6124;59.460;17.908;2023-08-24T13:07:55;4.40;;;1.80;;
12120;SDS011;6124;59.460;17.908;2023-08-24T13:10:22;3.07;;;1.57;;
12120;SDS011;6124;59.460;17.908;2023-08-24T13:12:51;3.07;;;2.00;;
12120;SDS011;6124;59.460;17.908;2023-08-24T13:15:19;4.43;;;1.90;;
12120;SDS011;6124;59.460;17.908;2023-08-24T13:17:46;2.60;;;1.67;;
12120;SDS011;6124;59.460;17.908;2023-08-24T13:20:13;2.53;;;1.83;;
12120;SDS011;6124;59.460;17.908;2023-08-24T13:22:41;3.30;;;1.80;;
12120;SDS011;6124;59.460;17.908;2023-08-24T13:25:07;3.93;;;1.87;;
12120;SDS011;6124;59.460;17.908;2023-08-24T13:27:35;4.70;;;2.23;;
12120;SDS011;6124;59.460;17.908;2023-08-24T13:30:04;2.60;;;1.70;;
12120;SDS011;6124;59.460;17.908;2023-08-24T13:32:32;2.90;;;1.80;;
12120;SDS011;6124;59.460;17.908;2023-08-24T13:35:00;3.43;;;1.70;;
12120;SDS011;6124;59.460;17.908;2023-08-24T13:37:28;3.13;;;1.80;;
12120;SDS011;6124;59.460;17.908;2023-08-24T13:39:55;3.27;;;1.90;;
12120;SDS011;6124;59.460;17.908;2023-08-24T13:42:24;3.13;;;2.00;;
12120;SDS011;6124;59.460;17.908;2023-08-24T13:44:51;4.60;;;1.87;;
12120;SDS011;6124;59.460;17.908;2023-08-24T13:47:20;4.97;;;1.70;;
12120;SDS011;6124;59.460;17.908;2023-08-24T13:49:47;2.53;;;1.63;;
12120;SDS011;6124;59.460;17.908;2023-08-24T13:52:15;3.60;;;2.00;;
12120;SDS011;6124;59.460;17.908;2023-08-24T13:54:44;4.47;;;1.70;;
12120;SDS011;6124;59.460;17.908;2023-08-24T13:57:12;2.60;;;1.80;;
12120;SDS011;6124;59.460;17.908;2023-08-24T13:59:39;3.83;;;1.90;;
12120;SDS011;6124;59.460;17.908;2023-08-24T14:02:07;3.77;;;1.70;;
12120;SDS011;6124;59.460;17.908;2023-08-24T14:04:35;2.50;;;1.80;;
12120;SDS011;6124;59.460;17.908;2023-08-24T14:07:03;3.43;;;2.07;;
12120;SDS011;6124;59.460;17.908;2023-08-24T14:09:30;3.50;;;1.80;;
12120;SDS011;6124;59.460;17.908;2023-08-24T14:11:57;5.20;;;2.23;;
12120;SDS011;6124;59.460;17.908;2023-08-24T14:14:25;2.83;;;1.73;;
12120;SDS011;6124;59.460;17.908;2023-08-24T14:16:55;5.17;;;1.80;;
12120;SDS011;6124;59.460;17.908;2023-08-24T14:19:23;6.03;;;2.03;;
12120;SDS011;6124;59.460;17.908;2023-08-24T14:21:52;3.07;;;1.90;;
12120;SDS011;6124;59.460;17.908;2023-08-24T14:24:19;4.23;;;1.93;;
12120;SDS011;6124;59.460;17.908;2023-08-24T14:26:46;4.37;;;1.90;;
12120;SDS011;6124;59.460;17.908;2023-08-24T14:29:14;3.73;;;2.00;;
12120;SDS011;6124;59.460;17.908;2023-08-24T14:31:41;3.47;;;2.10;;
12120;SDS011;6124;59.460;17.908;2023-08-24T14:34:08;3.60;;;2.00;;
12120;SDS011;6124;59.460;17.908;2023-08-24T14:36:36;4.47;;;1.90;;
12120;SDS011;6124;59.460;17.908;2023-08-24T14:39:04;3.80;;;1.87;;
12120;SDS011;6124;59.460;17.908;2023-08-24T14:41:33;4.13;;;1.87;;
12120;SDS011;6124;59.460;17.908;2023-08-24T14:44:00;4.33;;;2.00;;
12120;SDS011;6124;59.460;17.908;2023-08-24T14:46:27;3.17;;;1.60;;
12120;SDS011;6124;59.460;17.908;2023-08-24T14:48:55;3.97;;;1.97;;
12120;SDS011;6124;59.460;17.908;2023-08-24T14:51:22;2.53;;;1.83;;
12120;SDS011;6124;59.460;17.908;2023-08-24T14:53:49;4.70;;;2.00;;